KAFF/AFF METAR and TAF weather

Enter ICAO airport designator
Station Type Date Time Source
KAFF METAR 2018/01/19 22:58 UTC NOAA

KAFF 192258Z AUTO 20010KT 10SM CLR 17/M13 A2979 RMK AO2 SLP037 T01701126


Station Type Date Time Source
KAFF Decoded METAR 2018/01/19 22:58 UTC NOAA

Air Force Academy, CO, United States (KAFF) 38-58N 104-49W 1999M
Jan 19, 2018 - 05:58 PM EST / 2018.01.19 2258 UTC
Wind: from the SSW (200 degrees) at 12 MPH (10 KT):0
Visibility: 10 mile(s):0
Sky conditions: clear
Temperature: 62.6 F (17.0 C)
Dew Point: 9.3 F (-12.6 C)
Relative Humidity: 12%
Pressure (altimeter): 29.79 in. Hg (1008 hPa)
ob: KAFF 192258Z AUTO 20010KT 10SM CLR 17/M13 A2979 RMK AO2 SLP037 T01701126
cycle: 23

Station Type Date Time Source
KAFF TAF 2018/01/19 20:30 UTC NOAA

TAF TAF
AMD KAFF 192026Z 1920/2102 26010G15KT 9999 SCT240 530008 QNH2979INS
TEMPO 1920/1922 21015G25KT
BECMG 1921/1922 24012G18KT 9999 SCT240 520009 QNH2980INS
BECMG 1923/1924 24009KT 9999 SCT240 520003 530305 QNH2980INS
BECMG 2003/2004 24009KT 9999 SCT240 WS010/24030KT QNH2973INS
BECMG 2009/2010 34009KT 9999 SCT240 QNH2965INS
BECMG 2014/2015 24010G15KT 9999 SCT240 520304 QNH2963INS
BECMG 2019/2020 13006KT 9999 SCT240 530307 QNH2964INS
BECMG 2100/2101 01009KT 9999 SCT050 SCT100 QNH2962INS TX18/1921Z TN00/2012Z LAST NO
AMDS AFT 2000 NEXT 2112


Example: see airport list